Time;durP1;ratioP1;P1;durP2;ratioP2;P2;SDS_P1;SDS_P2;PMS_P1;PMS_P2;Temp;Humidity;BMP_temperature;BMP_pressure;BME280_temperature;BME280_humidity;BME280_pressure;Samples;Min_cycle;Max_cycle;Signal;HPM_P1;HPM_P2
2023/12/04 00:02:14;;;;;;;11.25;7.93;;;;;;;-1.03;100.00;93490.69;5049375;28;20045;-79
2023/12/04 00:04:41;;;;;;;12.32;8.27;;;;;;;-1.19;100.00;93492.94;5047525;28;20131;-79
2023/12/04 00:07:08;;;;;;;10.52;8.23;;;;;;;-1.63;100.00;93499.06;5047508;28;20049;-79
2023/12/04 00:09:35;;;;;;;12.27;7.97;;;;;;;-1.56;100.00;93471.63;5047766;28;20514;-82
2023/12/04 00:12:04;;;;;;;12.30;8.18;;;;;;;-1.64;100.00;93502.50;5047741;28;20045;-82
2023/12/04 00:14:31;;;;;;;10.88;8.70;;;;;;;-2.03;100.00;93486.31;5046727;28;20449;-81
2023/12/04 00:16:58;;;;;;;11.35;8.43;;;;;;;-2.03;100.00;93503.16;5048609;28;20053;-82
2023/12/04 00:19:25;;;;;;;12.68;9.23;;;;;;;-2.08;100.00;93506.03;5047229;28;20066;-82
2023/12/04 00:21:52;;;;;;;13.07;9.02;;;;;;;-2.12;100.00;93511.47;5051067;28;20526;-82
2023/12/04 00:24:19;;;;;;;14.63;10.30;;;;;;;-1.90;100.00;93502.97;5054241;28;20045;-82
2023/12/04 00:26:46;;;;;;;12.63;8.85;;;;;;;-1.85;100.00;93507.59;5046705;28;20055;-78
2023/12/04 00:29:14;;;;;;;12.27;9.05;;;;;;;-1.61;100.00;93507.31;5047142;28;20056;-76
2023/12/04 00:31:41;;;;;;;11.32;8.13;;;;;;;-1.75;100.00;93511.75;5050370;28;20094;-76
2023/12/04 00:34:08;;;;;;;11.95;8.80;;;;;;;-1.38;100.00;93507.09;5047553;28;20051;-76
2023/12/04 00:36:35;;;;;;;12.23;8.90;;;;;;;-1.35;100.00;93517.72;5046943;28;20502;-78
2023/12/04 00:39:02;;;;;;;12.02;9.10;;;;;;;-1.11;100.00;93515.78;5046748;28;20049;-75
2023/12/04 00:41:29;;;;;;;11.77;8.30;;;;;;;-0.89;100.00;93519.00;5046649;28;20049;-76
2023/12/04 00:43:56;;;;;;;11.20;8.45;;;;;;;-0.68;100.00;93523.91;5047248;28;20582;-75
2023/12/04 00:46:24;;;;;;;10.93;8.63;;;;;;;-0.69;100.00;93523.09;5046063;28;20049;-75
2023/12/04 00:48:51;;;;;;;11.88;9.00;;;;;;;-0.59;100.00;93523.09;5050231;28;20532;-75
2023/12/04 00:51:18;;;;;;;11.57;8.35;;;;;;;-0.50;100.00;93520.69;5055434;28;20067;-75
2023/12/04 00:53:45;;;;;;;10.93;8.43;;;;;;;-0.24;100.00;93528.50;5049203;28;20075;-75
2023/12/04 00:56:12;;;;;;;11.40;8.82;;;;;;;-0.11;100.00;93540.84;5046767;28;20045;-74
2023/12/04 00:58:39;;;;;;;12.07;9.13;;;;;;;0.07;100.00;93535.88;5048174;28;20052;-74
2023/12/04 01:01:07;;;;;;;12.02;9.38;;;;;;;0.15;100.00;93527.63;5054473;28;20053;-74
2023/12/04 01:03:35;;;;;;;13.43;8.45;;;;;;;0.12;100.00;93522.84;5046816;28;20059;-74
2023/12/04 01:06:02;;;;;;;11.52;8.75;;;;;;;0.14;100.00;93515.94;5046947;28;20057;-74
2023/12/04 01:08:29;;;;;;;12.02;8.23;;;;;;;0.35;100.00;93543.53;5046261;28;20057;-74
2023/12/04 01:10:56;;;;;;;11.43;8.73;;;;;;;0.38;100.00;93540.69;5046631;28;20055;-74
2023/12/04 01:13:23;;;;;;;10.73;7.93;;;;;;;0.40;100.00;93545.63;5046846;28;20045;-74
2023/12/04 01:15:50;;;;;;;12.05;8.27;;;;;;;0.44;100.00;93536.03;5052576;28;20059;-74
2023/12/04 01:18:18;;;;;;;10.30;7.65;;;;;;;0.59;100.00;93534.63;5046982;28;20080;-74
2023/12/04 01:20:46;;;;;;;10.63;8.05;;;;;;;0.33;99.54;93540.31;5046684;28;20410;-74
2023/12/04 01:23:13;;;;;;;11.43;7.95;;;;;;;0.24;99.42;93541.94;5055406;28;20049;-74
2023/12/04 01:25:40;;;;;;;10.25;7.68;;;;;;;0.36;100.00;93547.63;5050222;28;20045;-74
2023/12/04 01:28:07;;;;;;;10.23;7.82;;;;;;;0.34;100.00;93513.31;5066969;28;20147;-74
2023/12/04 01:30:34;;;;;;;11.55;8.18;;;;;;;0.40;100.00;93527.94;5056186;28;20051;-74
2023/12/04 01:33:00;;;;;;;12.00;8.98;;;;;;;0.24;99.38;93548.75;5050107;28;20049;-73
2023/12/04 01:35:27;;;;;;;9.57;7.30;;;;;;;-0.86;96.99;93547.25;5050141;28;20047;-74
2023/12/04 01:37:56;;;;;;;10.27;7.32;;;;;;;-1.21;100.00;93544.28;5052075;28;20129;-76
2023/12/04 01:40:23;;;;;;;10.95;7.45;;;;;;;-1.64;100.00;93556.22;5049530;28;20047;-77
2023/12/04 01:42:50;;;;;;;10.07;7.93;;;;;;;-1.62;100.00;93556.88;5058257;28;20051;-77
2023/12/04 01:45:17;;;;;;;11.48;8.23;;;;;;;-1.84;100.00;93554.53;5050715;28;20053;-75
2023/12/04 01:47:44;;;;;;;10.75;8.27;;;;;;;-1.73;100.00;93556.19;5050200;28;20559;-77
2023/12/04 01:50:11;;;;;;;11.15;8.13;;;;;;;-1.74;100.00;93552.84;5053896;28;20045;-77
2023/12/04 01:52:38;;;;;;;10.45;7.57;;;;;;;-1.88;100.00;93554.78;5052318;28;20062;-75
2023/12/04 01:55:09;;;;;;;9.45;6.93;;;;;;;-1.80;100.00;93549.09;5049461;28;20049;-75
2023/12/04 01:57:36;;;;;;;11.10;7.75;;;;;;;-2.07;100.00;93558.00;5063423;28;20511;-75
2023/12/04 02:00:05;;;;;;;11.73;7.72;;;;;;;-1.82;100.00;93550.16;5049814;28;20106;-75
2023/12/04 02:02:32;;;;;;;10.93;7.57;;;;;;;-1.60;100.00;93559.28;5049797;28;20132;-75
2023/12/04 02:05:00;;;;;;;10.88;7.55;;;;;;;-1.76;100.00;93565.56;5049578;28;20395;-76
2023/12/04 02:07:27;;;;;;;11.45;8.35;;;;;;;-2.21;100.00;93571.69;5051725;28;20073;-76
2023/12/04 02:09:54;;;;;;;11.70;8.20;;;;;;;-2.48;100.00;93562.88;5052984;28;20055;-76
2023/12/04 02:12:23;;;;;;;10.60;7.70;;;;;;;-2.41;100.00;93573.25;5051932;28;20521;-76
2023/12/04 02:14:49;;;;;;;10.73;7.80;;;;;;;-2.45;100.00;93574.44;5049728;28;20045;-76
2023/12/04 02:17:17;;;;;;;14.02;8.45;;;;;;;-2.51;100.00;93564.84;5049592;28;20053;-77
2023/12/04 02:19:44;;;;;;;10.25;7.22;;;;;;;-2.44;100.00;93576.81;5049451;28;20048;-80
2023/12/04 02:22:11;;;;;;;8.77;6.63;;;;;;;-2.49;100.00;93568.84;5049495;28;20049;-78
2023/12/04 02:24:40;;;;;;;8.93;6.63;;;;;;;-2.32;100.00;93581.81;5049097;28;20045;-78
2023/12/04 02:27:16;;;;;;;9.43;6.93;;;;;;;-2.09;100.00;93579.97;5057636;28;20523;-79
2023/12/04 02:29:52;;;;;;;9.50;6.75;;;;;;;-1.92;100.00;93580.31;5049281;28;20157;-78
2023/12/04 02:32:22;;;;;;;11.25;7.93;;;;;;;-1.52;100.00;93582.09;5049128;28;20080;-78
2023/12/04 02:34:54;;;;;;;9.85;7.15;;;;;;;-1.44;100.00;93583.22;5049575;28;20053;-79
2023/12/04 02:37:22;;;;;;;8.43;6.45;;;;;;;-1.59;98.89;93540.72;5052773;28;20066;-80
2023/12/04 02:39:54;;;;;;;10.25;6.70;;;;;;;-1.32;98.49;93577.16;5054164;28;20049;-79
2023/12/04 02:42:21;;;;;;;9.50;6.75;;;;;;;-1.38;98.74;93595.28;5058473;28;20053;-79
2023/12/04 02:44:49;;;;;;;9.68;6.90;;;;;;;-1.44;98.03;93561.31;5055727;28;20499;-80
2023/12/04 02:47:16;;;;;;;8.55;5.95;;;;;;;-1.27;97.04;93595.19;5050157;28;20510;-80
2023/12/04 02:49:43;;;;;;;8.73;6.55;;;;;;;-1.05;97.37;93597.66;5050006;28;20063;-80
2023/12/04 02:52:10;;;;;;;9.60;6.25;;;;;;;-1.03;97.64;93591.56;5050277;28;20064;-81
2023/12/04 02:54:37;;;;;;;9.55;6.95;;;;;;;-1.10;97.32;93565.25;5053680;28;20062;-80
2023/12/04 02:57:06;;;;;;;9.30;6.80;;;;;;;-0.92;95.67;93585.63;5049146;28;20051;-80
2023/12/04 02:59:33;;;;;;;9.85;7.47;;;;;;;-0.75;98.06;93591.72;5049618;28;20093;-81
2023/12/04 03:02:00;;;;;;;10.93;7.22;;;;;;;-0.95;96.28;93589.19;5049681;28;20048;-80
2023/12/04 03:04:29;;;;;;;11.15;7.93;;;;;;;-0.77;99.54;93578.47;5052797;28;20838;-81
2023/12/04 03:06:56;;;;;;;10.95;7.65;;;;;;;-0.57;99.58;93586.84;5056923;28;20082;-81
2023/12/04 03:09:23;;;;;;;11.65;7.93;;;;;;;-0.56;98.00;93587.63;5051300;28;20053;-80
2023/12/04 03:11:50;;;;;;;12.15;7.75;;;;;;;-0.38;98.71;93589.50;5048936;28;20041;-79
2023/12/04 03:14:18;;;;;;;14.48;8.65;;;;;;;-0.20;100.00;93592.94;5062969;28;20417;-79
2023/12/04 03:16:46;;;;;;;10.23;7.05;;;;;;;-0.35;96.50;93595.09;5060060;28;20521;-81
2023/12/04 03:19:12;;;;;;;10.43;7.20;;;;;;;-0.44;95.93;93599.22;5051444;28;20052;-80
2023/12/04 03:21:39;;;;;;;10.75;7.40;;;;;;;-0.58;98.01;93595.34;5048449;28;20079;-80
2023/12/04 03:24:06;;;;;;;9.85;7.28;;;;;;;-0.62;98.22;93595.72;5048622;28;20080;-79
2023/12/04 03:26:33;;;;;;;10.65;7.75;;;;;;;-0.51;98.22;93598.13;5048729;28;20053;-80
2023/12/04 03:29:00;;;;;;;11.32;8.40;;;;;;;-0.49;98.93;93570.25;5051130;28;20103;-79
2023/12/04 03:31:30;;;;;;;11.20;7.97;;;;;;;-0.20;99.01;93599.72;5053698;28;20084;-79
2023/12/04 03:33:57;;;;;;;11.15;8.30;;;;;;;-0.41;97.17;93558.53;5048559;28;20053;-80
2023/12/04 03:36:24;;;;;;;14.52;9.35;;;;;;;-0.25;95.29;93607.69;5049967;28;20045;-81
2023/12/04 03:38:51;;;;;;;12.23;7.72;;;;;;;-0.16;95.28;93606.09;5047967;28;20083;-80
2023/12/04 03:41:18;;;;;;;12.18;8.65;;;;;;;-0.09;95.67;93613.94;5061695;28;20099;-80
2023/12/04 03:43:45;;;;;;;12.13;7.93;;;;;;;-0.31;95.29;93593.09;5062600;28;20137;-81
2023/12/04 03:46:12;;;;;;;11.57;8.00;;;;;;;-0.58;94.29;93571.84;5056915;28;20128;-81
2023/12/04 03:48:40;;;;;;;10.23;7.63;;;;;;;-0.42;95.96;93611.66;5047526;28;20049;-81
2023/12/04 03:51:31;;;;;;;10.68;7.38;;;;;;;-1.08;96.54;93516.31;5047866;28;20135;-82
2023/12/04 03:53:57;;;;;;;9.93;7.10;;;;;;;-0.57;95.29;93617.13;5057894;28;20052;-82
2023/12/04 03:56:24;;;;;;;9.05;6.63;;;;;;;-1.17;93.45;93620.44;5047588;28;20562;-80
2023/12/04 03:58:51;;;;;;;9.73;7.05;;;;;;;-1.26;95.13;93627.03;5050890;28;20049;-81
2023/12/04 04:01:18;;;;;;;9.02;7.05;;;;;;;-1.47;95.06;93619.53;5052596;28;20055;-80
2023/12/04 04:03:47;;;;;;;9.60;7.63;;;;;;;-1.61;95.59;93611.38;5047756;28;20055;-80
2023/12/04 04:06:13;;;;;;;10.38;7.10;;;;;;;-1.44;96.94;93616.75;5052932;28;20052;-79
2023/12/04 04:08:40;;;;;;;9.88;7.43;;;;;;;-1.50;96.12;93613.03;5050786;28;20049;-79
2023/12/04 04:11:08;;;;;;;9.90;7.07;;;;;;;-1.16;99.92;93611.94;5053856;28;20047;-79
2023/12/04 04:13:35;;;;;;;11.07;7.85;;;;;;;-1.09;97.55;93613.03;5050215;28;20051;-79
2023/12/04 04:16:02;;;;;;;10.38;8.00;;;;;;;-1.06;97.59;93612.00;5050588;28;20061;-80
2023/12/04 04:18:29;;;;;;;11.38;7.93;;;;;;;-1.04;97.58;93586.63;5055158;28;20068;-79
2023/12/04 04:20:58;;;;;;;11.25;7.85;;;;;;;-0.62;98.62;93624.28;5052501;28;20195;-79
2023/12/04 04:23:32;;;;;;;11.90;8.77;;;;;;;-0.64;95.50;93627.88;5055726;28;20077;-79
2023/12/04 04:25:59;;;;;;;11.27;8.02;;;;;;;-0.80;94.42;93634.22;5048270;28;20203;-80
2023/12/04 04:28:26;;;;;;;11.48;8.35;;;;;;;-0.95;95.49;93626.22;5048265;28;20570;-80
2023/12/04 04:30:53;;;;;;;9.45;7.38;;;;;;;-0.86;96.24;93624.63;5053894;28;20478;-80
2023/12/04 04:33:20;;;;;;;10.45;7.47;;;;;;;-1.33;93.93;93640.28;5048764;28;20055;-79
2023/12/04 04:35:47;;;;;;;11.57;9.35;;;;;;;-1.70;95.28;93604.56;5058106;28;20049;-79
2023/12/04 04:38:15;;;;;;;13.57;10.23;;;;;;;-1.17;99.32;93629.75;5051148;28;20063;-79
2023/12/04 04:40:43;;;;;;;12.50;9.18;;;;;;;-1.15;99.91;93626.13;5056805;28;20077;-78
2023/12/04 04:43:11;;;;;;;15.43;9.75;;;;;;;-1.00;97.99;93639.22;5053631;28;20055;-78
2023/12/04 04:45:38;;;;;;;13.45;8.45;;;;;;;-0.93;98.96;93629.38;5047308;28;20155;-78
2023/12/04 04:48:05;;;;;;;15.48;10.55;;;;;;;-0.78;98.69;93641.66;5051669;28;20124;-78
2023/12/04 04:50:32;;;;;;;13.70;9.50;;;;;;;-0.79;97.51;93645.09;5048243;28;20049;-78
2023/12/04 04:52:59;;;;;;;12.40;9.00;;;;;;;-0.73;97.77;93649.63;5047348;28;20067;-78
2023/12/04 04:55:28;;;;;;;11.10;8.52;;;;;;;-0.96;94.44;93652.34;5056071;28;20052;-77
2023/12/04 04:58:09;;;;;;;11.85;8.93;;;;;;;-0.98;97.00;93624.75;5052958;28;20059;-78
2023/12/04 05:00:36;;;;;;;12.35;8.70;;;;;;;-1.02;96.12;93641.03;5050680;28;20465;-79
2023/12/04 05:03:24;;;;;;;11.43;9.00;;;;;;;-1.11;94.93;93652.69;5063163;28;20058;-78
2023/12/04 05:05:51;;;;;;;12.75;10.35;;;;;;;-1.16;94.47;93642.19;5044905;28;20056;-78
2023/12/04 05:08:18;;;;;;;11.85;9.10;;;;;;;-1.30;93.33;93652.63;5056355;28;20163;-78
2023/12/04 05:10:47;;;;;;;19.25;11.90;;;;;;;-1.21;96.88;93657.72;5052717;28;20041;-78
2023/12/04 05:13:14;;;;;;;15.05;11.68;;;;;;;-1.22;97.41;93653.59;5058462;28;20051;-78
2023/12/04 05:15:42;;;;;;;18.08;13.38;;;;;;;-1.27;95.63;93657.41;5053380;28;20049;-78
2023/12/04 05:18:09;;;;;;;14.98;10.48;;;;;;;-1.18;98.01;93656.66;5056138;28;20055;-78
2023/12/04 05:20:36;;;;;;;14.65;10.63;;;;;;;-1.13;98.49;93658.78;5053985;28;20476;-78
2023/12/04 05:23:03;;;;;;;13.98;11.30;;;;;;;-1.23;98.65;93631.84;5051828;28;20062;-77
2023/12/04 05:25:30;;;;;;;19.80;12.35;;;;;;;-1.21;96.83;93640.06;5055483;28;20266;-77
2023/12/04 05:27:58;;;;;;;13.38;9.80;;;;;;;-1.30;97.32;93637.50;5050605;28;20048;-77
2023/12/04 05:30:25;;;;;;;13.98;10.02;;;;;;;-1.16;98.39;93641.41;5051063;28;20055;-77
2023/12/04 05:32:52;;;;;;;13.43;9.65;;;;;;;-1.15;97.74;93651.34;5051317;28;20057;-77
2023/12/04 05:35:19;;;;;;;14.00;10.18;;;;;;;-1.05;98.14;93653.13;5051443;28;20159;-77
2023/12/04 05:37:46;;;;;;;13.25;9.95;;;;;;;-1.19;96.33;93644.97;5051336;28;20049;-78
2023/12/04 05:40:13;;;;;;;13.85;10.18;;;;;;;-1.13;97.77;93659.59;5053565;28;20495;-77
2023/12/04 05:42:40;;;;;;;16.00;10.35;;;;;;;-1.58;97.50;93654.88;5050229;28;20049;-77
2023/12/04 05:45:09;;;;;;;12.00;9.88;;;;;;;-1.64;98.83;93659.50;5061562;28;20522;-78
2023/12/04 05:47:36;;;;;;;13.23;10.48;;;;;;;-1.65;99.97;93647.00;5058058;28;20052;-77
2023/12/04 05:50:04;;;;;;;14.13;10.75;;;;;;;-1.51;100.00;93653.44;5052798;28;20127;-77
2023/12/04 05:52:30;;;;;;;14.52;10.82;;;;;;;-1.39;99.71;93656.72;5059781;28;20135;-77
2023/12/04 05:54:57;;;;;;;15.88;11.15;;;;;;;-1.44;98.89;93659.59;5057067;28;20051;-77
2023/12/04 05:57:24;;;;;;;14.02;10.55;;;;;;;-1.34;99.46;93667.22;5050095;28;20136;-77
2023/12/04 05:59:51;;;;;;;17.15;12.32;;;;;;;-1.26;99.69;93659.00;5050577;28;20049;-77
2023/12/04 06:02:20;;;;;;;18.35;12.10;;;;;;;-1.38;98.13;93668.38;5053700;28;21029;-77
2023/12/04 06:04:47;;;;;;;17.38;12.40;;;;;;;-1.39;99.46;93664.25;5052214;28;20128;-77
2023/12/04 06:07:14;;;;;;;18.40;13.00;;;;;;;-1.50;98.17;93672.69;5051483;28;20494;-77
2023/12/04 06:09:41;;;;;;;16.13;10.75;;;;;;;-1.81;98.67;93677.69;5052088;28;20061;-77
2023/12/04 06:12:09;;;;;;;14.93;10.27;;;;;;;-2.62;98.88;93618.50;5053580;28;20044;-80
2023/12/04 06:14:36;;;;;;;14.00;10.25;;;;;;;-2.66;99.70;93663.22;5053850;28;20060;-80
2023/12/04 06:17:03;;;;;;;17.13;13.27;;;;;;;-2.61;100.00;93650.28;5052719;28;20060;-77
2023/12/04 06:19:32;;;;;;;19.17;13.20;;;;;;;-2.65;100.00;93667.31;5054560;28;20051;-77
2023/12/04 06:21:59;;;;;;;17.85;11.65;;;;;;;-3.02;100.00;93665.09;5055660;28;20045;-78
2023/12/04 06:24:29;;;;;;;17.48;13.07;;;;;;;-2.91;100.00;93669.31;5057885;28;20536;-77
2023/12/04 06:26:57;;;;;;;16.35;12.00;;;;;;;-3.00;100.00;93678.34;5057730;28;20502;-77
2023/12/04 06:29:25;;;;;;;16.17;12.35;;;;;;;-2.72;100.00;93678.78;5058375;28;20049;-77
2023/12/04 06:31:53;;;;;;;17.95;13.20;;;;;;;-2.28;100.00;93672.03;5062847;28;20041;-77
2023/12/04 06:34:20;;;;;;;18.88;12.57;;;;;;;-2.07;100.00;93668.75;5060196;28;20042;-78
2023/12/04 06:36:52;;;;;;;16.55;11.32;;;;;;;-1.81;100.00;93691.06;5057224;28;20076;-78
2023/12/04 06:39:24;;;;;;;16.05;10.98;;;;;;;-1.78;100.00;93695.84;5056187;28;20059;-78
2023/12/04 06:41:52;;;;;;;16.88;11.60;;;;;;;-1.64;100.00;93701.50;5057538;28;20045;-78
2023/12/04 06:44:19;;;;;;;16.13;9.98;;;;;;;-1.75;98.68;93709.94;5059680;28;20045;-79
2023/12/04 06:46:50;;;;;;;12.80;10.05;;;;;;;-1.63;99.46;93713.16;5057077;28;20573;-79
2023/12/04 06:49:18;;;;;;;11.63;9.05;;;;;;;-1.55;99.81;93708.34;5056587;28;20048;-79
2023/12/04 06:51:45;;;;;;;16.45;11.27;;;;;;;-1.37;99.94;93705.25;5058369;28;20140;-80
2023/12/04 06:54:14;;;;;;;15.27;12.35;;;;;;;-1.29;98.70;93715.50;5057834;28;20044;-80
2023/12/04 06:56:40;;;;;;;12.90;10.15;;;;;;;-1.18;100.00;93691.13;5057592;28;20048;-80
2023/12/04 06:59:07;;;;;;;15.85;13.90;;;;;;;-1.06;96.93;93715.38;5058804;28;20124;-79
2023/12/04 07:01:34;;;;;;;20.55;14.88;;;;;;;-1.10;95.26;93711.50;5059242;28;20060;-79
2023/12/04 07:04:01;;;;;;;20.00;13.75;;;;;;;-0.93;94.92;93714.34;5059339;28;20041;-79
2023/12/04 07:06:29;;;;;;;21.15;13.65;;;;;;;-0.79;95.78;93718.25;5055125;28;20047;-78
2023/12/04 07:08:55;;;;;;;19.75;13.85;;;;;;;-0.87;95.49;93707.09;5059416;28;20048;-79
2023/12/04 07:11:25;;;;;;;20.20;13.05;;;;;;;-0.66;95.27;93708.72;5056101;28;20127;-78
2023/12/04 07:13:52;;;;;;;15.00;11.10;;;;;;;-0.57;95.63;93710.50;5058180;28;20044;-79
2023/12/04 07:16:19;;;;;;;15.18;10.55;;;;;;;-0.71;92.46;93710.84;5054410;28;20135;-79
2023/12/04 07:18:46;;;;;;;15.43;11.43;;;;;;;-0.75;92.60;93714.56;5054596;28;20124;-79
2023/12/04 07:21:13;;;;;;;13.88;9.90;;;;;;;-0.83;93.78;93700.84;5057277;28;20045;-79
2023/12/04 07:23:40;;;;;;;14.38;11.57;;;;;;;-1.45;91.87;93736.09;5057661;28;20044;-79
2023/12/04 07:26:08;;;;;;;13.07;10.43;;;;;;;-1.24;94.73;93730.25;5058599;28;20067;-79
2023/12/04 07:28:36;;;;;;;13.48;10.07;;;;;;;-1.06;95.71;93717.06;5053969;28;20048;-79
2023/12/04 07:31:03;;;;;;;14.38;9.38;;;;;;;-1.00;94.20;93706.50;5057681;28;20056;-79
2023/12/04 07:33:30;;;;;;;15.13;10.65;;;;;;;-0.89;92.90;93728.31;5056857;28;20047;-79
2023/12/04 07:35:57;;;;;;;13.90;9.27;;;;;;;-0.62;95.27;93716.84;5058065;28;20132;-79
2023/12/04 07:38:24;;;;;;;11.18;8.15;;;;;;;-1.08;91.19;93719.72;5057920;28;20140;-79
2023/12/04 07:40:51;;;;;;;10.93;8.30;;;;;;;-1.11;92.48;93727.56;5059776;28;20090;-79
2023/12/04 07:43:18;;;;;;;11.95;8.95;;;;;;;-0.94;93.03;93721.09;5059396;28;20351;-79
2023/12/04 07:45:46;;;;;;;12.18;8.77;;;;;;;-0.91;94.93;93717.53;5058479;28;20148;-80
2023/12/04 07:48:13;;;;;;;12.75;9.07;;;;;;;-0.91;92.45;93699.88;5056689;28;20049;-80
2023/12/04 07:50:40;;;;;;;11.95;7.32;;;;;;;-0.97;89.05;93701.22;5050916;28;20048;-79
2023/12/04 07:53:09;;;;;;;10.70;7.13;;;;;;;-1.12;89.48;93726.75;5051253;28;20044;-79
2023/12/04 07:55:36;;;;;;;9.90;7.05;;;;;;;-1.15;89.02;93729.50;5057038;28;20624;-80
2023/12/04 07:58:03;;;;;;;7.88;5.75;;;;;;;-1.48;87.97;93734.63;5050743;28;20523;-80
2023/12/04 08:00:30;;;;;;;11.40;8.20;;;;;;;-1.01;92.74;93718.31;5050337;28;20052;-80
2023/12/04 08:02:58;;;;;;;11.98;7.93;;;;;;;-0.91;91.49;93736.00;5058092;28;20048;-80
2023/12/04 08:05:27;;;;;;;8.75;6.13;;;;;;;-0.95;89.88;93732.94;5051139;28;20834;-81
2023/12/04 08:07:54;;;;;;;9.65;6.72;;;;;;;-1.22;88.72;93744.34;5051688;28;20171;-81
2023/12/04 08:10:22;;;;;;;9.57;6.22;;;;;;;-1.16;90.70;93739.72;5058031;28;20044;-80
2023/12/04 08:12:49;;;;;;;10.68;6.95;;;;;;;-1.00;89.80;93735.03;5055918;28;20052;-80
2023/12/04 08:15:17;;;;;;;8.13;6.38;;;;;;;-1.08;90.84;93750.78;5056956;28;20040;-81
2023/12/04 08:17:44;;;;;;;8.80;6.10;;;;;;;-0.79;92.92;93715.72;5058901;28;20462;-80
2023/12/04 08:20:13;;;;;;;9.15;7.15;;;;;;;-0.51;93.99;93696.53;5059501;28;20131;-80
2023/12/04 08:22:40;;;;;;;8.65;6.13;;;;;;;-0.20;89.98;93733.53;5056159;28;20045;-80
2023/12/04 08:25:08;;;;;;;8.82;7.13;;;;;;;0.02;89.61;93731.69;5060454;28;20044;-79
2023/12/04 08:27:35;;;;;;;9.38;6.45;;;;;;;0.02;88.19;93740.09;5058055;28;20067;-79
2023/12/04 08:30:02;;;;;;;9.30;6.28;;;;;;;-0.19;86.81;93714.94;5059712;28;20616;-80
2023/12/04 08:32:29;;;;;;;11.85;7.05;;;;;;;-0.03;87.61;93739.69;5059027;28;20059;-79
2023/12/04 08:34:56;;;;;;;9.90;7.43;;;;;;;0.20;89.58;93739.44;5057266;28;20123;-78
2023/12/04 08:37:25;;;;;;;9.82;6.70;;;;;;;0.28;87.25;93743.81;5060568;28;20421;-78
2023/12/04 08:39:51;;;;;;;10.30;6.60;;;;;;;0.34;87.79;93739.03;5063186;28;20044;-78
2023/12/04 08:42:19;;;;;;;8.63;5.70;;;;;;;0.34;85.52;93749.16;5061367;28;20947;-78
2023/12/04 08:44:47;;;;;;;8.75;6.18;;;;;;;0.29;84.04;93738.63;5059315;28;20056;-80
2023/12/04 08:47:14;;;;;;;8.73;5.63;;;;;;;0.38;83.63;93747.16;5061171;28;20048;-79
2023/12/04 08:49:41;;;;;;;7.13;5.43;;;;;;;0.36;83.18;93743.94;5063141;28;20067;-79
2023/12/04 08:52:08;;;;;;;9.52;5.68;;;;;;;0.51;84.30;93745.13;5064173;28;20052;-79
2023/12/04 08:54:40;;;;;;;11.00;6.13;;;;;;;0.69;85.49;93739.38;5059157;28;20048;-79
2023/12/04 08:57:07;;;;;;;7.80;5.80;;;;;;;0.77;82.22;93737.00;5058653;28;20040;-79
2023/12/04 08:59:34;;;;;;;8.02;5.30;;;;;;;0.81;82.19;93742.56;5059167;28;20404;-79
2023/12/04 09:02:03;;;;;;;7.43;5.78;;;;;;;0.75;81.86;93730.47;5062186;28;20056;-78
2023/12/04 09:04:30;;;;;;;6.90;5.18;;;;;;;1.01;84.78;93722.28;5061676;28;20522;-79
2023/12/04 09:06:57;;;;;;;7.65;5.32;;;;;;;1.04;81.12;93722.81;5061713;28;20492;-78
2023/12/04 09:09:24;;;;;;;6.90;5.07;;;;;;;1.14;82.89;93721.97;5055473;28;20059;-79
2023/12/04 09:11:52;;;;;;;9.50;5.28;;;;;;;1.17;80.18;93726.75;5058705;28;20064;-79
2023/12/04 09:14:19;;;;;;;7.43;4.78;;;;;;;1.28;78.83;93719.00;5058212;28;20055;-78
2023/12/04 09:16:46;;;;;;;10.30;5.30;;;;;;;1.11;82.04;93697.72;5050972;28;20672;-79
2023/12/04 09:19:13;;;;;;;9.02;6.10;;;;;;;1.45;82.46;93717.44;5051096;28;20057;-79
2023/12/04 09:21:40;;;;;;;20.73;12.10;;;;;;;1.67;82.56;93709.59;5052286;28;21177;-79
2023/12/04 09:24:07;;;;;;;29.27;15.13;;;;;;;1.68;77.98;93711.19;5060877;28;20131;-79
2023/12/04 09:26:34;;;;;;;13.85;7.40;;;;;;;1.75;79.40;93709.69;5058015;28;20098;-79
2023/12/04 09:29:03;;;;;;;14.02;6.72;;;;;;;1.86;79.34;93711.22;5056271;28;20052;-78
2023/12/04 09:31:29;;;;;;;9.45;4.75;;;;;;;1.31;75.99;93717.91;5053641;28;20053;-78
2023/12/04 09:33:56;;;;;;;9.68;5.05;;;;;;;0.78;75.62;93715.81;5054305;28;20049;-79
2023/12/04 09:36:23;;;;;;;10.57;5.63;;;;;;;0.75;77.45;93710.25;5054195;28;20054;-79
2023/12/04 09:38:50;;;;;;;11.20;5.57;;;;;;;0.89;78.56;93709.78;5052802;28;20052;-79
2023/12/04 09:41:18;;;;;;;7.82;5.20;;;;;;;0.87;76.77;93720.97;5053851;28;20536;-80
2023/12/04 09:43:46;;;;;;;13.48;6.05;;;;;;;0.83;78.75;93705.28;5051524;28;20078;-79
2023/12/04 09:46:16;;;;;;;14.15;5.90;;;;;;;0.86;77.53;93709.28;5052297;28;20131;-80
2023/12/04 09:48:44;;;;;;;10.88;5.25;;;;;;;1.04;81.36;93700.03;5051537;28;20056;-79
2023/12/04 09:51:11;;;;;;;16.17;8.95;;;;;;;1.19;82.29;93697.03;5053912;28;20143;-80
2023/12/04 09:53:41;;;;;;;16.85;8.70;;;;;;;1.43;79.94;93696.53;5054739;28;20048;-80
2023/12/04 09:56:10;;;;;;;25.25;11.93;;;;;;;1.63;81.75;93691.38;5054741;28;20049;-80
2023/12/04 09:58:41;;;;;;;25.45;10.45;;;;;;;1.63;81.32;93647.50;5053780;28;20594;-80
2023/12/04 10:01:08;;;;;;;10.60;6.13;;;;;;;1.70;79.35;93634.13;5052034;28;20049;-80
2023/12/04 10:03:38;;;;;;;9.32;5.50;;;;;;;1.86;76.06;93684.13;5051893;28;20049;-80
2023/12/04 10:06:07;;;;;;;9.55;5.40;;;;;;;1.93;77.40;93684.38;5052666;28;20057;-80
2023/12/04 10:08:34;;;;;;;10.32;5.55;;;;;;;1.80;75.41;93673.81;5050723;28;20140;-80
2023/12/04 10:11:01;;;;;;;8.30;5.10;;;;;;;1.72;73.79;93687.19;5061545;28;20048;-80
2023/12/04 10:13:28;;;;;;;8.15;4.28;;;;;;;1.17;72.82;93692.13;5053155;28;20054;-80
2023/12/04 10:15:55;;;;;;;8.73;4.40;;;;;;;0.79;73.42;93688.81;5052636;28;20099;-79
2023/12/04 10:18:30;;;;;;;7.72;4.30;;;;;;;0.51;76.13;93686.22;5051013;28;20052;-79
2023/12/04 10:20:59;;;;;;;9.23;4.83;;;;;;;0.34;75.55;93693.56;5049597;28;20529;-78
2023/12/04 10:23:39;;;;;;;31.73;22.80;;;;;;;0.67;76.25;93678.06;5051165;28;20056;-79
2023/12/04 10:26:07;;;;;;;19.33;11.13;;;;;;;0.91;74.28;93681.84;5052326;28;20049;-79
2023/12/04 10:28:34;;;;;;;13.98;5.70;;;;;;;1.04;76.51;93677.28;5058925;28;20056;-79
2023/12/04 10:31:01;;;;;;;10.02;5.65;;;;;;;1.06;80.24;93618.91;5052148;28;20049;-79
2023/12/04 10:33:30;;;;;;;9.38;5.32;;;;;;;1.56;79.80;93660.75;5049382;28;20055;-79
2023/12/04 10:35:59;;;;;;;11.52;5.30;;;;;;;1.43;74.88;93663.63;5049444;28;20045;-78
2023/12/04 10:38:26;;;;;;;8.05;4.85;;;;;;;1.57;77.79;93664.09;5050723;28;20051;-79
2023/12/04 10:40:53;;;;;;;8.88;5.00;;;;;;;1.76;77.95;93664.91;5056574;28;20042;-78
2023/12/04 10:43:22;;;;;;;13.60;6.22;;;;;;;2.02;80.52;93657.34;5062164;28;20059;-79
2023/12/04 10:45:50;;;;;;;10.75;5.03;;;;;;;2.22;79.51;93652.16;5053465;28;20048;-79
2023/12/04 10:48:18;;;;;;;10.07;5.50;;;;;;;2.23;79.90;93631.69;5050395;28;20056;-78
2023/12/04 10:50:47;;;;;;;9.60;5.45;;;;;;;2.59;78.51;93643.50;5052246;28;20054;-78
2023/12/04 10:53:17;;;;;;;7.82;4.53;;;;;;;2.73;77.98;93643.91;5052139;28;20044;-79
2023/12/04 10:55:45;;;;;;;7.68;4.90;;;;;;;2.75;74.97;93658.03;5049053;28;20067;-79
2023/12/04 10:58:14;;;;;;;10.48;4.68;;;;;;;2.78;72.46;93667.09;5049317;28;20081;-78
2023/12/04 11:00:44;;;;;;;8.85;5.35;;;;;;;2.85;73.02;93655.38;5064172;28;20053;-78
2023/12/04 11:03:14;;;;;;;11.70;6.13;;;;;;;2.92;75.23;93640.34;5048936;28;20049;-78
2023/12/04 11:05:42;;;;;;;9.60;4.90;;;;;;;3.03;73.99;93639.28;5056286;28;20559;-78
2023/12/04 11:08:12;;;;;;;10.40;5.32;;;;;;;2.99;73.89;93640.53;5050855;28;20732;-78
2023/12/04 11:10:48;;;;;;;10.93;5.28;;;;;;;3.05;72.03;93638.19;5060798;28;20094;-78
2023/12/04 11:13:18;;;;;;;8.63;4.25;;;;;;;2.75;69.92;93650.41;5048751;28;20510;-78
2023/12/04 11:15:50;;;;;;;14.15;4.55;;;;;;;2.36;73.44;93621.16;5049067;28;20069;-78
2023/12/04 11:18:21;;;;;;;8.93;4.57;;;;;;;2.22;72.17;93645.31;5052714;28;20043;-78
2023/12/04 11:20:55;;;;;;;8.30;4.93;;;;;;;2.33;72.01;93625.75;5060095;28;20052;-78
2023/12/04 11:23:24;;;;;;;8.88;5.55;;;;;;;2.53;75.41;93629.69;5048710;28;20115;-78
2023/12/04 11:25:54;;;;;;;8.75;5.03;;;;;;;2.70;74.67;93618.81;5048587;28;20067;-78
2023/12/04 11:28:21;;;;;;;17.92;9.05;;;;;;;2.90;75.80;93622.72;5051665;28;20045;-78
2023/12/04 11:30:49;;;;;;;13.48;6.85;;;;;;;3.05;76.74;93628.03;5048304;28;20496;-78